Blue Grotto — WDE6956 — position and weather

sailwx.info

Track history (hours):
 
Tides and Currents Weather Stations Pressure Air Temp Water Temp Dewpoint Dewpoint Depression Visibility Wind Speed Wind Dir Waves Ship Positions

Blue Grotto

Owner: Waterwood LLC, Newport, RI. More information available from US FCC via Universal Licensing System and Coast Guard Vessel Documentation Center.

Last reported at 2015-Apr-30 19:33 UTC. Time now 2015-May-06 13:31 UTC.
Position N 28°11' W 080°38'.

Length 19 m.

Type: Pleasure craft. MMSI: 367387040.

Date/timePositionNaut miles runAvg speedWind from/ knotsBaromVisibWave heightAir tempDewpointWater temp
2015-Apr-30 19:33N 28°11' W 080°38'77 2.9
2015-Apr-29 17:04N 27°01' W 080°01'5 9.5
2015-Apr-29 16:33N 26°56' W 080°00'3010.1
2015-Apr-29 13:33N 26°26' W 080°01'1010.0
2015-Apr-29 12:33N 26°16' W 080°02'10 9.6
2015-Apr-29 11:34N 26°07' W 080°05'2 2.3
2015-Apr-29 10:31N 26°06' W 080°07'0 0.0
2015-Apr-29 09:31N 26°06' W 080°07'0 0.0
2015-Apr-29 08:31N 26°06' W 080°07'0 0.2
2015-Apr-29 07:17N 26°06' W 080°07'5 7.0
2015-Apr-29 06:33N 26°02' W 080°04'  
Track history (hours):
 
Tides and Currents Weather Stations Pressure Air Temp Water Temp Dewpoint Dewpoint Depression Visibility Wind Speed Wind Dir Waves Ship Positions

Blue Grotto

Owner: Waterwood LLC, Newport, RI. More information available from US FCC via Universal Licensing System and Coast Guard Vessel Documentation Center.

Last reported at 2015-Apr-30 19:33 UTC. Time now 2015-May-06 13:31 UTC.
Position N 28°11' W 080°38'.

Length 19 m.

Type: Pleasure craft. MMSI: 367387040.

Date/timePositionNaut miles runAvg speedWind from/ knotsBaromVisibWave heightAir tempDewpointWater temp
2015-Apr-30 19:33N 28°11' W 080°38'77 2.9
2015-Apr-29 17:04N 27°01' W 080°01'5 9.5
2015-Apr-29 16:33N 26°56' W 080°00'3010.1
2015-Apr-29 13:33N 26°26' W 080°01'1010.0
2015-Apr-29 12:33N 26°16' W 080°02'10 9.6
2015-Apr-29 11:34N 26°07' W 080°05'2 2.3
2015-Apr-29 10:31N 26°06' W 080°07'0 0.0
2015-Apr-29 09:31N 26°06' W 080°07'0 0.0
2015-Apr-29 08:31N 26°06' W 080°07'0 0.2
2015-Apr-29 07:17N 26°06' W 080°07'5 7.0
2015-Apr-29 06:33N 26°02' W 080°04'  

Dump ship's entire track history